sensor_id;sensor_type;location;lat;lon;timestamp;temperature;humidity
10472;DHT22;5283;48.876;8.962;2022-12-18T00:01:23;-14.20;99.90
10472;DHT22;5283;48.876;8.962;2022-12-18T00:03:52;-14.20;99.90
10472;DHT22;5283;48.876;8.962;2022-12-18T00:06:19;-14.10;99.90
10472;DHT22;5283;48.876;8.962;2022-12-18T00:08:46;-14.00;99.90
10472;DHT22;5283;48.876;8.962;2022-12-18T00:11:19;-14.00;99.90
10472;DHT22;5283;48.876;8.962;2022-12-18T00:13:47;-14.00;99.90
10472;DHT22;5283;48.876;8.962;2022-12-18T00:16:19;-14.10;99.90
10472;DHT22;5283;48.876;8.962;2022-12-18T00:18:48;-14.00;99.90
10472;DHT22;5283;48.876;8.962;2022-12-18T00:21:15;-13.90;99.90
10472;DHT22;5283;48.876;8.962;2022-12-18T00:23:43;-13.80;99.90
10472;DHT22;5283;48.876;8.962;2022-12-18T00:26:15;-13.70;99.90
10472;DHT22;5283;48.876;8.962;2022-12-18T00:28:42;-13.70;99.90
10472;DHT22;5283;48.876;8.962;2022-12-18T00:31:13;-13.80;99.90
10472;DHT22;5283;48.876;8.962;2022-12-18T00:33:40;-13.80;99.90
10472;DHT22;5283;48.876;8.962;2022-12-18T00:36:12;-14.00;99.90
10472;DHT22;5283;48.876;8.962;2022-12-18T00:38:40;-14.10;99.90
10472;DHT22;5283;48.876;8.962;2022-12-18T00:41:08;-14.20;99.90
10472;DHT22;5283;48.876;8.962;2022-12-18T00:43:35;-14.30;99.90
10472;DHT22;5283;48.876;8.962;2022-12-18T00:46:03;-14.40;99.90
10472;DHT22;5283;48.876;8.962;2022-12-18T00:48:30;-14.40;99.90
10472;DHT22;5283;48.876;8.962;2022-12-18T00:50:56;-14.40;99.90
10472;DHT22;5283;48.876;8.962;2022-12-18T00:53:23;-14.20;99.90
10472;DHT22;5283;48.876;8.962;2022-12-18T00:55:50;-14.20;99.90
10472;DHT22;5283;48.876;8.962;2022-12-18T00:58:17;-14.20;99.90
10472;DHT22;5283;48.876;8.962;2022-12-18T01:00:43;-14.20;99.90
10472;DHT22;5283;48.876;8.962;2022-12-18T01:03:13;-14.10;99.90
10472;DHT22;5283;48.876;8.962;2022-12-18T01:05:41;-14.10;99.90
10472;DHT22;5283;48.876;8.962;2022-12-18T01:08:08;-14.00;99.90
10472;DHT22;5283;48.876;8.962;2022-12-18T01:10:35;-14.10;99.90
10472;DHT22;5283;48.876;8.962;2022-12-18T01:13:02;-14.20;99.90
10472;DHT22;5283;48.876;8.962;2022-12-18T01:15:29;-14.30;99.90
10472;DHT22;5283;48.876;8.962;2022-12-18T01:17:56;-14.30;99.90
10472;DHT22;5283;48.876;8.962;2022-12-18T01:20:22;-14.40;99.90
10472;DHT22;5283;48.876;8.962;2022-12-18T01:22:49;-14.40;99.90
10472;DHT22;5283;48.876;8.962;2022-12-18T01:25:16;-14.40;99.90
10472;DHT22;5283;48.876;8.962;2022-12-18T01:27:42;-14.40;99.90
10472;DHT22;5283;48.876;8.962;2022-12-18T01:30:09;-14.50;99.90
10472;DHT22;5283;48.876;8.962;2022-12-18T01:32:36;-14.60;99.90
10472;DHT22;5283;48.876;8.962;2022-12-18T01:35:04;-14.40;99.90
10472;DHT22;5283;48.876;8.962;2022-12-18T01:37:31;-14.40;99.90
10472;DHT22;5283;48.876;8.962;2022-12-18T01:39:57;-14.30;99.90
10472;DHT22;5283;48.876;8.962;2022-12-18T01:42:24;-14.10;99.90
10472;DHT22;5283;48.876;8.962;2022-12-18T01:47:38;-14.00;99.90
10472;DHT22;5283;48.876;8.962;2022-12-18T01:52:35;-14.10;99.90
10472;DHT22;5283;48.876;8.962;2022-12-18T01:55:04;-14.20;99.90
10472;DHT22;5283;48.876;8.962;2022-12-18T01:57:31;-14.30;99.90
10472;DHT22;5283;48.876;8.962;2022-12-18T02:00:06;-14.30;99.90
10472;DHT22;5283;48.876;8.962;2022-12-18T02:02:33;-14.10;99.90
10472;DHT22;5283;48.876;8.962;2022-12-18T02:05:00;-14.10;99.90
10472;DHT22;5283;48.876;8.962;2022-12-18T02:16:00;-13.90;99.90
10472;DHT22;5283;48.876;8.962;2022-12-18T02:18:49;-14.00;99.90
10472;DHT22;5283;48.876;8.962;2022-12-18T02:24:01;-14.20;99.90
10472;DHT22;5283;48.876;8.962;2022-12-18T02:26:34;-14.20;99.90
10472;DHT22;5283;48.876;8.962;2022-12-18T02:29:08;-14.10;99.90
10472;DHT22;5283;48.876;8.962;2022-12-18T02:31:45;-14.00;99.90
10472;DHT22;5283;48.876;8.962;2022-12-18T02:34:15;-13.90;99.90
10472;DHT22;5283;48.876;8.962;2022-12-18T02:36:43;-13.80;99.90
10472;DHT22;5283;48.876;8.962;2022-12-18T02:39:12;-13.80;99.90
10472;DHT22;5283;48.876;8.962;2022-12-18T02:41:40;-13.80;99.90
10472;DHT22;5283;48.876;8.962;2022-12-18T02:44:12;-13.80;99.90
10472;DHT22;5283;48.876;8.962;2022-12-18T02:46:41;-13.70;99.90
10472;DHT22;5283;48.876;8.962;2022-12-18T02:52:37;-13.50;99.90
10472;DHT22;5283;48.876;8.962;2022-12-18T02:55:28;-13.50;99.90
10472;DHT22;5283;48.876;8.962;2022-12-18T02:57:56;-13.50;99.90
10472;DHT22;5283;48.876;8.962;2022-12-18T03:00:58;-13.40;99.90
10472;DHT22;5283;48.876;8.962;2022-12-18T03:03:47;-13.50;99.90
10472;DHT22;5283;48.876;8.962;2022-12-18T03:06:24;-13.40;99.90
10472;DHT22;5283;48.876;8.962;2022-12-18T03:08:56;-13.30;99.90
10472;DHT22;5283;48.876;8.962;2022-12-18T03:11:26;-13.20;99.90
10472;DHT22;5283;48.876;8.962;2022-12-18T03:14:13;-13.10;99.90
10472;DHT22;5283;48.876;8.962;2022-12-18T03:16:43;-13.00;99.90
10472;DHT22;5283;48.876;8.962;2022-12-18T03:19:14;-13.10;99.90
10472;DHT22;5283;48.876;8.962;2022-12-18T03:21:47;-13.10;99.90
10472;DHT22;5283;48.876;8.962;2022-12-18T03:24:16;-13.20;99.90
10472;DHT22;5283;48.876;8.962;2022-12-18T03:26:46;-13.40;99.90
10472;DHT22;5283;48.876;8.962;2022-12-18T03:29:36;-13.40;99.90
10472;DHT22;5283;48.876;8.962;2022-12-18T03:32:15;-13.40;99.90
10472;DHT22;5283;48.876;8.962;2022-12-18T03:34:44;-13.60;99.90
10472;DHT22;5283;48.876;8.962;2022-12-18T03:37:14;-13.60;99.90
10472;DHT22;5283;48.876;8.962;2022-12-18T03:39:41;-13.50;99.90
10472;DHT22;5283;48.876;8.962;2022-12-18T03:42:15;-13.50;99.90
10472;DHT22;5283;48.876;8.962;2022-12-18T03:47:57;-13.60;99.90
10472;DHT22;5283;48.876;8.962;2022-12-18T03:53:33;-13.70;99.90
10472;DHT22;5283;48.876;8.962;2022-12-18T03:56:02;-13.70;99.90
10472;DHT22;5283;48.876;8.962;2022-12-18T03:58:32;-13.80;99.90
10472;DHT22;5283;48.876;8.962;2022-12-18T04:01:02;-13.80;99.90
10472;DHT22;5283;48.876;8.962;2022-12-18T04:03:32;-13.80;99.90
10472;DHT22;5283;48.876;8.962;2022-12-18T04:06:02;-13.90;99.90
10472;DHT22;5283;48.876;8.962;2022-12-18T04:08:29;-13.90;99.90
10472;DHT22;5283;48.876;8.962;2022-12-18T04:10:56;-14.00;99.90
10472;DHT22;5283;48.876;8.962;2022-12-18T04:13:35;-14.10;99.90
10472;DHT22;5283;48.876;8.962;2022-12-18T04:16:03;-14.20;99.90
10472;DHT22;5283;48.876;8.962;2022-12-18T04:18:30;-14.00;99.90
10472;DHT22;5283;48.876;8.962;2022-12-18T04:20:57;-13.90;99.90
10472;DHT22;5283;48.876;8.962;2022-12-18T04:23:23;-13.90;99.90
10472;DHT22;5283;48.876;8.962;2022-12-18T04:25:50;-14.00;99.90
10472;DHT22;5283;48.876;8.962;2022-12-18T04:28:17;-14.00;99.90
10472;DHT22;5283;48.876;8.962;2022-12-18T04:30:44;-14.10;99.90
10472;DHT22;5283;48.876;8.962;2022-12-18T04:33:12;-14.10;99.90
10472;DHT22;5283;48.876;8.962;2022-12-18T04:35:41;-14.10;99.90
10472;DHT22;5283;48.876;8.962;2022-12-18T04:38:09;-14.10;99.90
10472;DHT22;5283;48.876;8.962;2022-12-18T04:40:37;-14.10;99.90
10472;DHT22;5283;48.876;8.962;2022-12-18T04:43:04;-14.00;99.90
10472;DHT22;5283;48.876;8.962;2022-12-18T04:45:32;-13.80;99.90
10472;DHT22;5283;48.876;8.962;2022-12-18T04:47:59;-13.60;99.90
10472;DHT22;5283;48.876;8.962;2022-12-18T04:50:27;-13.50;99.90
10472;DHT22;5283;48.876;8.962;2022-12-18T04:52:54;-13.40;99.90
10472;DHT22;5283;48.876;8.962;2022-12-18T04:55:24;-13.10;99.90
10472;DHT22;5283;48.876;8.962;2022-12-18T04:57:51;-13.00;99.90
10472;DHT22;5283;48.876;8.962;2022-12-18T05:00:18;-13.00;99.90
10472;DHT22;5283;48.876;8.962;2022-12-18T05:02:45;-12.90;99.90
10472;DHT22;5283;48.876;8.962;2022-12-18T05:05:12;-12.80;99.90
10472;DHT22;5283;48.876;8.962;2022-12-18T05:07:39;-12.80;99.90
10472;DHT22;5283;48.876;8.962;2022-12-18T05:10:06;-12.80;99.90
10472;DHT22;5283;48.876;8.962;2022-12-18T05:12:33;-12.70;99.90
10472;DHT22;5283;48.876;8.962;2022-12-18T05:15:00;-12.80;99.90
10472;DHT22;5283;48.876;8.962;2022-12-18T05:17:29;-12.70;99.90
10472;DHT22;5283;48.876;8.962;2022-12-18T05:19:56;-12.50;99.90
10472;DHT22;5283;48.876;8.962;2022-12-18T05:22:23;-12.40;99.90
10472;DHT22;5283;48.876;8.962;2022-12-18T05:24:49;-12.40;99.90
10472;DHT22;5283;48.876;8.962;2022-12-18T05:27:16;-12.30;99.90
10472;DHT22;5283;48.876;8.962;2022-12-18T05:29:44;-12.20;99.90
10472;DHT22;5283;48.876;8.962;2022-12-18T05:32:10;-12.20;99.90
10472;DHT22;5283;48.876;8.962;2022-12-18T05:34:37;-12.20;99.90
10472;DHT22;5283;48.876;8.962;2022-12-18T05:37:04;-12.20;99.90
10472;DHT22;5283;48.876;8.962;2022-12-18T05:39:31;-12.30;99.90
10472;DHT22;5283;48.876;8.962;2022-12-18T05:41:57;-12.50;99.90
10472;DHT22;5283;48.876;8.962;2022-12-18T05:44:24;-12.60;99.90
10472;DHT22;5283;48.876;8.962;2022-12-18T05:46:51;-12.70;99.90
10472;DHT22;5283;48.876;8.962;2022-12-18T05:49:17;-12.70;99.90
10472;DHT22;5283;48.876;8.962;2022-12-18T05:51:44;-12.70;99.90
10472;DHT22;5283;48.876;8.962;2022-12-18T05:54:11;-12.60;99.90
10472;DHT22;5283;48.876;8.962;2022-12-18T05:56:38;-12.60;99.90
10472;DHT22;5283;48.876;8.962;2022-12-18T05:59:06;-12.50;99.90
10472;DHT22;5283;48.876;8.962;2022-12-18T06:01:33;-12.50;99.90
10472;DHT22;5283;48.876;8.962;2022-12-18T06:03:59;-12.60;99.90
10472;DHT22;5283;48.876;8.962;2022-12-18T06:06:27;-12.60;99.90
10472;DHT22;5283;48.876;8.962;2022-12-18T06:08:55;-12.60;99.90
10472;DHT22;5283;48.876;8.962;2022-12-18T06:11:24;-12.60;99.90
10472;DHT22;5283;48.876;8.962;2022-12-18T06:13:55;-12.70;99.90
10472;DHT22;5283;48.876;8.962;2022-12-18T06:16:24;-12.70;99.90
10472;DHT22;5283;48.876;8.962;2022-12-18T06:18:50;-12.70;99.90
10472;DHT22;5283;48.876;8.962;2022-12-18T06:21:17;-12.70;99.90
10472;DHT22;5283;48.876;8.962;2022-12-18T06:23:44;-12.70;99.90
10472;DHT22;5283;48.876;8.962;2022-12-18T06:26:12;-12.60;99.90
10472;DHT22;5283;48.876;8.962;2022-12-18T06:28:39;-12.70;99.90
10472;DHT22;5283;48.876;8.962;2022-12-18T06:31:06;-12.70;99.90
10472;DHT22;5283;48.876;8.962;2022-12-18T06:33:33;-12.70;99.90
10472;DHT22;5283;48.876;8.962;2022-12-18T06:36:06;-12.70;99.90
10472;DHT22;5283;48.876;8.962;2022-12-18T06:38:34;-12.70;99.90
10472;DHT22;5283;48.876;8.962;2022-12-18T06:41:13;-12.70;99.90
10472;DHT22;5283;48.876;8.962;2022-12-18T06:43:41;-12.60;99.90
10472;DHT22;5283;48.876;8.962;2022-12-18T06:46:08;-12.50;99.90
10472;DHT22;5283;48.876;8.962;2022-12-18T06:48:35;-12.30;99.90
10472;DHT22;5283;48.876;8.962;2022-12-18T06:51:02;-12.20;99.90
10472;DHT22;5283;48.876;8.962;2022-12-18T06:53:29;-12.00;99.90
10472;DHT22;5283;48.876;8.962;2022-12-18T06:56:03;-11.90;99.90
10472;DHT22;5283;48.876;8.962;2022-12-18T06:58:33;-11.70;99.90
10472;DHT22;5283;48.876;8.962;2022-12-18T07:01:05;-11.50;99.90
10472;DHT22;5283;48.876;8.962;2022-12-18T07:03:32;-11.40;99.90
10472;DHT22;5283;48.876;8.962;2022-12-18T07:05:59;-11.40;99.90
10472;DHT22;5283;48.876;8.962;2022-12-18T07:08:25;-11.50;99.90
10472;DHT22;5283;48.876;8.962;2022-12-18T07:10:52;-11.60;99.90
10472;DHT22;5283;48.876;8.962;2022-12-18T07:13:21;-11.50;99.90
10472;DHT22;5283;48.876;8.962;2022-12-18T07:15:48;-11.50;99.90
10472;DHT22;5283;48.876;8.962;2022-12-18T07:18:15;-11.50;99.90
10472;DHT22;5283;48.876;8.962;2022-12-18T07:20:42;-11.60;99.90
10472;DHT22;5283;48.876;8.962;2022-12-18T07:23:08;-11.70;99.90
10472;DHT22;5283;48.876;8.962;2022-12-18T07:25:36;-11.80;99.90
10472;DHT22;5283;48.876;8.962;2022-12-18T07:28:04;-11.80;99.90
10472;DHT22;5283;48.876;8.962;2022-12-18T07:30:30;-11.90;99.90
10472;DHT22;5283;48.876;8.962;2022-12-18T07:32:57;-12.10;99.90
10472;DHT22;5283;48.876;8.962;2022-12-18T07:35:24;-12.20;99.90
10472;DHT22;5283;48.876;8.962;2022-12-18T07:37:51;-12.30;99.90
10472;DHT22;5283;48.876;8.962;2022-12-18T07:40:17;-12.30;99.90
10472;DHT22;5283;48.876;8.962;2022-12-18T07:42:44;-12.20;99.90
10472;DHT22;5283;48.876;8.962;2022-12-18T07:45:11;-12.10;99.90
10472;DHT22;5283;48.876;8.962;2022-12-18T07:47:38;-11.90;99.90
10472;DHT22;5283;48.876;8.962;2022-12-18T07:50:05;-11.70;99.90
10472;DHT22;5283;48.876;8.962;2022-12-18T07:52:32;-11.70;99.90
10472;DHT22;5283;48.876;8.962;2022-12-18T07:54:59;-11.60;99.90
10472;DHT22;5283;48.876;8.962;2022-12-18T07:57:25;-11.50;99.90
10472;DHT22;5283;48.876;8.962;2022-12-18T08:00:13;-11.40;99.90
10472;DHT22;5283;48.876;8.962;2022-12-18T08:02:40;-11.30;99.90
10472;DHT22;5283;48.876;8.962;2022-12-18T08:05:07;-11.10;99.90
10472;DHT22;5283;48.876;8.962;2022-12-18T08:07:33;-10.90;99.90
10472;DHT22;5283;48.876;8.962;2022-12-18T08:10:00;-10.80;99.90
10472;DHT22;5283;48.876;8.962;2022-12-18T08:12:27;-10.70;99.90
10472;DHT22;5283;48.876;8.962;2022-12-18T08:14:54;-10.50;99.90
10472;DHT22;5283;48.876;8.962;2022-12-18T08:17:20;-10.40;99.90
10472;DHT22;5283;48.876;8.962;2022-12-18T08:19:47;-10.20;99.90
10472;DHT22;5283;48.876;8.962;2022-12-18T08:22:14;-10.10;99.90
10472;DHT22;5283;48.876;8.962;2022-12-18T08:24:40;-10.10;99.90
10472;DHT22;5283;48.876;8.962;2022-12-18T08:27:07;-10.10;99.90
10472;DHT22;5283;48.876;8.962;2022-12-18T08:29:54;-10.10;99.90
10472;DHT22;5283;48.876;8.962;2022-12-18T08:32:20;-10.20;99.90
10472;DHT22;5283;48.876;8.962;2022-12-18T08:34:47;-10.30;99.90
10472;DHT22;5283;48.876;8.962;2022-12-18T08:37:14;-10.30;99.90
10472;DHT22;5283;48.876;8.962;2022-12-18T08:39:41;-10.30;99.90
10472;DHT22;5283;48.876;8.962;2022-12-18T08:42:07;-10.30;99.90
10472;DHT22;5283;48.876;8.962;2022-12-18T08:44:53;-10.20;99.90
10472;DHT22;5283;48.876;8.962;2022-12-18T08:47:19;-10.10;99.90
10472;DHT22;5283;48.876;8.962;2022-12-18T08:49:46;-9.80;99.90
10472;DHT22;5283;48.876;8.962;2022-12-18T08:52:13;-9.50;99.90
10472;DHT22;5283;48.876;8.962;2022-12-18T08:54:40;-9.20;99.90
10472;DHT22;5283;48.876;8.962;2022-12-18T08:57:06;-9.00;99.90
10472;DHT22;5283;48.876;8.962;2022-12-18T08:59:33;-8.80;99.90
10472;DHT22;5283;48.876;8.962;2022-12-18T09:02:00;-8.80;99.90
10472;DHT22;5283;48.876;8.962;2022-12-18T09:04:27;-8.70;99.90
10472;DHT22;5283;48.876;8.962;2022-12-18T09:06:53;-8.70;99.90
10472;DHT22;5283;48.876;8.962;2022-12-18T09:09:20;-8.80;99.90
10472;DHT22;5283;48.876;8.962;2022-12-18T09:11:47;-8.70;99.90
10472;DHT22;5283;48.876;8.962;2022-12-18T09:14:14;-8.70;99.90
10472;DHT22;5283;48.876;8.962;2022-12-18T09:16:40;-8.70;99.90
10472;DHT22;5283;48.876;8.962;2022-12-18T09:19:08;-8.50;99.90
10472;DHT22;5283;48.876;8.962;2022-12-18T09:21:35;-8.50;99.90
10472;DHT22;5283;48.876;8.962;2022-12-18T09:24:03;-8.30;99.90
10472;DHT22;5283;48.876;8.962;2022-12-18T09:26:30;-8.20;99.90
10472;DHT22;5283;48.876;8.962;2022-12-18T09:28:56;-8.00;99.90
10472;DHT22;5283;48.876;8.962;2022-12-18T09:31:24;-7.80;99.90
10472;DHT22;5283;48.876;8.962;2022-12-18T09:33:51;-7.70;99.90
10472;DHT22;5283;48.876;8.962;2022-12-18T09:36:18;-7.60;99.90
10472;DHT22;5283;48.876;8.962;2022-12-18T09:38:45;-7.50;99.90
10472;DHT22;5283;48.876;8.962;2022-12-18T09:41:51;-7.40;99.90
10472;DHT22;5283;48.876;8.962;2022-12-18T09:44:29;-7.20;99.90
10472;DHT22;5283;48.876;8.962;2022-12-18T09:47:18;-7.00;99.90
10472;DHT22;5283;48.876;8.962;2022-12-18T09:49:49;-6.80;99.90
10472;DHT22;5283;48.876;8.962;2022-12-18T09:55:05;-6.60;99.90
10472;DHT22;5283;48.876;8.962;2022-12-18T09:57:39;-6.50;99.90
10472;DHT22;5283;48.876;8.962;2022-12-18T10:00:19;-6.40;99.90
10472;DHT22;5283;48.876;8.962;2022-12-18T10:02:46;-6.20;99.90
10472;DHT22;5283;48.876;8.962;2022-12-18T10:05:17;-6.00;99.90
10472;DHT22;5283;48.876;8.962;2022-12-18T10:07:55;-5.90;99.90
10472;DHT22;5283;48.876;8.962;2022-12-18T10:10:53;-5.80;99.90
10472;DHT22;5283;48.876;8.962;2022-12-18T10:21:32;-5.30;99.90
10472;DHT22;5283;48.876;8.962;2022-12-18T10:26:46;-5.10;99.90
10472;DHT22;5283;48.876;8.962;2022-12-18T10:29:15;-5.00;99.90
10472;DHT22;5283;48.876;8.962;2022-12-18T10:31:43;-4.90;99.90
10472;DHT22;5283;48.876;8.962;2022-12-18T10:34:11;-4.80;99.90
10472;DHT22;5283;48.876;8.962;2022-12-18T10:36:38;-4.60;99.90
10472;DHT22;5283;48.876;8.962;2022-12-18T10:39:23;-4.50;99.90
10472;DHT22;5283;48.876;8.962;2022-12-18T10:41:50;-4.40;99.90
10472;DHT22;5283;48.876;8.962;2022-12-18T10:44:23;-4.30;99.90
10472;DHT22;5283;48.876;8.962;2022-12-18T10:46:53;-4.20;99.90
10472;DHT22;5283;48.876;8.962;2022-12-18T10:49:28;-4.20;99.90
10472;DHT22;5283;48.876;8.962;2022-12-18T10:52:28;-4.10;99.90
10472;DHT22;5283;48.876;8.962;2022-12-18T10:55:01;-4.00;99.90
10472;DHT22;5283;48.876;8.962;2022-12-18T11:00:21;-3.90;99.90
10472;DHT22;5283;48.876;8.962;2022-12-18T11:02:45;-3.90;99.90
10472;DHT22;5283;48.876;8.962;2022-12-18T11:05:33;-3.80;99.90
10472;DHT22;5283;48.876;8.962;2022-12-18T11:08:01;-3.80;99.90
10472;DHT22;5283;48.876;8.962;2022-12-18T11:10:31;-3.70;99.90
10472;DHT22;5283;48.876;8.962;2022-12-18T11:13:19;-3.60;99.90
10472;DHT22;5283;48.876;8.962;2022-12-18T11:15:47;-3.50;99.90
10472;DHT22;5283;48.876;8.962;2022-12-18T11:18:34;-3.50;99.90
10472;DHT22;5283;48.876;8.962;2022-12-18T11:21:11;-3.40;99.90
10472;DHT22;5283;48.876;8.962;2022-12-18T11:23:52;-3.40;99.90
10472;DHT22;5283;48.876;8.962;2022-12-18T11:26:20;-3.40;99.90
10472;DHT22;5283;48.876;8.962;2022-12-18T11:29:08;-3.40;99.90
10472;DHT22;5283;48.876;8.962;2022-12-18T11:31:35;-3.40;99.90
10472;DHT22;5283;48.876;8.962;2022-12-18T11:36:55;-3.30;99.90
10472;DHT22;5283;48.876;8.962;2022-12-18T11:39:54;-3.30;99.90
10472;DHT22;5283;48.876;8.962;2022-12-18T11:42:45;-3.20;99.90
10472;DHT22;5283;48.876;8.962;2022-12-18T11:48:02;-3.10;99.90
10472;DHT22;5283;48.876;8.962;2022-12-18T11:53:02;-3.10;99.90
10472;DHT22;5283;48.876;8.962;2022-12-18T11:55:41;-3.00;99.90
10472;DHT22;5283;48.876;8.962;2022-12-18T12:03:44;-2.90;99.90
10472;DHT22;5283;48.876;8.962;2022-12-18T12:20:44;-2.70;99.90
10472;DHT22;5283;48.876;8.962;2022-12-18T12:23:20;-2.60;99.90
10472;DHT22;5283;48.876;8.962;2022-12-18T12:26:06;-2.60;99.90
10472;DHT22;5283;48.876;8.962;2022-12-18T12:28:59;-2.60;99.90
10472;DHT22;5283;48.876;8.962;2022-12-18T12:37:45;-2.50;99.90
10472;DHT22;5283;48.876;8.962;2022-12-18T12:40:17;-2.40;99.90
10472;DHT22;5283;48.876;8.962;2022-12-18T12:46:06;-2.30;99.90
10472;DHT22;5283;48.876;8.962;2022-12-18T12:48:49;-2.40;99.90
10472;DHT22;5283;48.876;8.962;2022-12-18T12:53:47;-2.40;99.90
10472;DHT22;5283;48.876;8.962;2022-12-18T12:56:16;-2.30;99.90
10472;DHT22;5283;48.876;8.962;2022-12-18T12:59:01;-2.20;99.90
10472;DHT22;5283;48.876;8.962;2022-12-18T13:01:41;-2.10;99.90
10472;DHT22;5283;48.876;8.962;2022-12-18T13:04:37;-2.10;99.90
10472;DHT22;5283;48.876;8.962;2022-12-18T13:07:14;-1.90;99.90
10472;DHT22;5283;48.876;8.962;2022-12-18T13:15:45;-1.70;99.90
10472;DHT22;5283;48.876;8.962;2022-12-18T13:18:15;-1.70;99.90
10472;DHT22;5283;48.876;8.962;2022-12-18T13:23:35;-1.60;99.90
10472;DHT22;5283;48.876;8.962;2022-12-18T13:34:22;-1.80;99.90
10472;DHT22;5283;48.876;8.962;2022-12-18T13:36:52;-1.80;99.90
10472;DHT22;5283;48.876;8.962;2022-12-18T13:42:31;-1.80;99.90
10472;DHT22;5283;48.876;8.962;2022-12-18T13:45:01;-1.80;99.90
10472;DHT22;5283;48.876;8.962;2022-12-18T13:47:32;-1.70;99.90
10472;DHT22;5283;48.876;8.962;2022-12-18T13:50:02;-1.60;99.90
10472;DHT22;5283;48.876;8.962;2022-12-18T13:52:37;-1.60;99.90
10472;DHT22;5283;48.876;8.962;2022-12-18T13:55:14;-1.60;99.90
10472;DHT22;5283;48.876;8.962;2022-12-18T13:57:41;-1.60;99.90
10472;DHT22;5283;48.876;8.962;2022-12-18T14:00:30;-1.60;99.90
10472;DHT22;5283;48.876;8.962;2022-12-18T14:02:57;-1.60;99.90
10472;DHT22;5283;48.876;8.962;2022-12-18T14:05:36;-1.60;99.90
10472;DHT22;5283;48.876;8.962;2022-12-18T14:08:11;-1.70;99.90
10472;DHT22;5283;48.876;8.962;2022-12-18T14:10:45;-1.70;99.90
10472;DHT22;5283;48.876;8.962;2022-12-18T14:13:31;-1.80;99.90
10472;DHT22;5283;48.876;8.962;2022-12-18T14:16:00;-1.90;99.90
10472;DHT22;5283;48.876;8.962;2022-12-18T14:21:06;-2.10;99.90
10472;DHT22;5283;48.876;8.962;2022-12-18T14:23:42;-2.20;99.90
10472;DHT22;5283;48.876;8.962;2022-12-18T14:26:30;-2.30;99.90
10472;DHT22;5283;48.876;8.962;2022-12-18T14:29:24;-2.30;99.90
10472;DHT22;5283;48.876;8.962;2022-12-18T14:32:12;-2.30;99.90
10472;DHT22;5283;48.876;8.962;2022-12-18T14:34:53;-2.40;99.90
10472;DHT22;5283;48.876;8.962;2022-12-18T14:37:25;-2.50;99.90
10472;DHT22;5283;48.876;8.962;2022-12-18T14:40:02;-2.60;99.90
10472;DHT22;5283;48.876;8.962;2022-12-18T14:42:34;-2.60;99.90
10472;DHT22;5283;48.876;8.962;2022-12-18T14:48:08;-2.80;99.90
10472;DHT22;5283;48.876;8.962;2022-12-18T14:50:35;-2.90;99.90
10472;DHT22;5283;48.876;8.962;2022-12-18T14:53:02;-2.90;99.90
10472;DHT22;5283;48.876;8.962;2022-12-18T14:55:29;-3.00;99.90
10472;DHT22;5283;48.876;8.962;2022-12-18T14:57:57;-3.00;99.90
10472;DHT22;5283;48.876;8.962;2022-12-18T15:00:25;-3.00;99.90
10472;DHT22;5283;48.876;8.962;2022-12-18T15:02:56;-3.10;99.90
10472;DHT22;5283;48.876;8.962;2022-12-18T15:05:25;-3.10;99.90
10472;DHT22;5283;48.876;8.962;2022-12-18T15:07:56;-3.20;99.90
10472;DHT22;5283;48.876;8.962;2022-12-18T15:10:28;-3.20;99.90
10472;DHT22;5283;48.876;8.962;2022-12-18T15:20:40;-3.50;99.90
10472;DHT22;5283;48.876;8.962;2022-12-18T15:25:58;-3.70;99.90
10472;DHT22;5283;48.876;8.962;2022-12-18T15:28:44;-3.70;99.90
10472;DHT22;5283;48.876;8.962;2022-12-18T15:33:44;-3.90;99.90
10472;DHT22;5283;48.876;8.962;2022-12-18T15:36:14;-4.00;99.90
10472;DHT22;5283;48.876;8.962;2022-12-18T15:38:45;-4.00;99.90
10472;DHT22;5283;48.876;8.962;2022-12-18T15:41:14;-4.10;99.90
10472;DHT22;5283;48.876;8.962;2022-12-18T15:43:44;-4.00;99.90
10472;DHT22;5283;48.876;8.962;2022-12-18T15:46:16;-4.10;99.90
10472;DHT22;5283;48.876;8.962;2022-12-18T15:48:54;-4.20;99.90
10472;DHT22;5283;48.876;8.962;2022-12-18T15:51:31;-4.20;99.90
10472;DHT22;5283;48.876;8.962;2022-12-18T15:54:01;-4.20;99.90
10472;DHT22;5283;48.876;8.962;2022-12-18T15:56:30;-4.20;99.90
10472;DHT22;5283;48.876;8.962;2022-12-18T15:59:18;-4.20;99.90
10472;DHT22;5283;48.876;8.962;2022-12-18T16:01:47;-4.20;99.90
10472;DHT22;5283;48.876;8.962;2022-12-18T16:04:16;-4.20;99.90
10472;DHT22;5283;48.876;8.962;2022-12-18T16:06:43;-4.30;99.90
10472;DHT22;5283;48.876;8.962;2022-12-18T16:09:30;-4.20;99.90
10472;DHT22;5283;48.876;8.962;2022-12-18T16:11:56;-4.20;99.90
10472;DHT22;5283;48.876;8.962;2022-12-18T16:14:26;-4.30;99.90
10472;DHT22;5283;48.876;8.962;2022-12-18T16:16:55;-4.30;99.90
10472;DHT22;5283;48.876;8.962;2022-12-18T16:19:22;-4.30;99.90
10472;DHT22;5283;48.876;8.962;2022-12-18T16:21:50;-4.30;99.90
10472;DHT22;5283;48.876;8.962;2022-12-18T16:24:20;-4.40;99.90
10472;DHT22;5283;48.876;8.962;2022-12-18T16:26:49;-4.40;99.90
10472;DHT22;5283;48.876;8.962;2022-12-18T16:29:18;-4.40;99.90
10472;DHT22;5283;48.876;8.962;2022-12-18T16:31:45;-4.50;99.90
10472;DHT22;5283;48.876;8.962;2022-12-18T16:36:49;-4.50;99.90
10472;DHT22;5283;48.876;8.962;2022-12-18T16:39:16;-4.40;99.90
10472;DHT22;5283;48.876;8.962;2022-12-18T16:41:43;-4.50;99.90
10472;DHT22;5283;48.876;8.962;2022-12-18T16:44:10;-4.40;99.90
10472;DHT22;5283;48.876;8.962;2022-12-18T16:46:37;-4.30;99.90
10472;DHT22;5283;48.876;8.962;2022-12-18T16:49:05;-4.30;99.90
10472;DHT22;5283;48.876;8.962;2022-12-18T16:51:32;-4.30;99.90
10472;DHT22;5283;48.876;8.962;2022-12-18T16:53:58;-4.20;99.90
10472;DHT22;5283;48.876;8.962;2022-12-18T16:56:25;-4.20;99.90
10472;DHT22;5283;48.876;8.962;2022-12-18T16:58:53;-4.10;99.90
10472;DHT22;5283;48.876;8.962;2022-12-18T17:01:22;-4.10;99.90
10472;DHT22;5283;48.876;8.962;2022-12-18T17:04:02;-4.10;99.90
10472;DHT22;5283;48.876;8.962;2022-12-18T17:06:31;-4.00;99.90
10472;DHT22;5283;48.876;8.962;2022-12-18T17:08:59;-4.00;99.90
10472;DHT22;5283;48.876;8.962;2022-12-18T17:11:29;-3.90;99.90
10472;DHT22;5283;48.876;8.962;2022-12-18T17:13:56;-3.90;99.90
10472;DHT22;5283;48.876;8.962;2022-12-18T17:16:23;-3.90;99.90
10472;DHT22;5283;48.876;8.962;2022-12-18T17:18:52;-3.80;99.90
10472;DHT22;5283;48.876;8.962;2022-12-18T17:21:18;-3.80;99.90
10472;DHT22;5283;48.876;8.962;2022-12-18T17:23:45;-3.80;99.90
10472;DHT22;5283;48.876;8.962;2022-12-18T17:26:12;-3.70;99.90
10472;DHT22;5283;48.876;8.962;2022-12-18T17:28:40;-3.70;99.90
10472;DHT22;5283;48.876;8.962;2022-12-18T17:31:21;-3.60;99.90
10472;DHT22;5283;48.876;8.962;2022-12-18T17:33:48;-3.60;99.90
10472;DHT22;5283;48.876;8.962;2022-12-18T17:36:16;-3.60;99.90
10472;DHT22;5283;48.876;8.962;2022-12-18T17:38:48;-3.60;99.90
10472;DHT22;5283;48.876;8.962;2022-12-18T17:41:15;-3.60;99.90
10472;DHT22;5283;48.876;8.962;2022-12-18T17:43:42;-3.50;99.90
10472;DHT22;5283;48.876;8.962;2022-12-18T17:46:13;-3.50;99.90
10472;DHT22;5283;48.876;8.962;2022-12-18T17:48:40;-3.50;99.90
10472;DHT22;5283;48.876;8.962;2022-12-18T17:51:08;-3.50;99.90
10472;DHT22;5283;48.876;8.962;2022-12-18T17:53:37;-3.50;99.90
10472;DHT22;5283;48.876;8.962;2022-12-18T17:56:11;-3.40;99.90
10472;DHT22;5283;48.876;8.962;2022-12-18T17:58:38;-3.50;99.90
10472;DHT22;5283;48.876;8.962;2022-12-18T18:01:06;-3.50;99.90
10472;DHT22;5283;48.876;8.962;2022-12-18T18:03:34;-3.50;99.90